createdAt,value
2022-12-02T00:00:50.936Z,99.90
2022-12-02T00:03:25.845Z,99.90
2022-12-02T00:05:57.926Z,99.90
2022-12-02T00:08:33.144Z,99.90
2022-12-02T00:11:30.253Z,99.90
2022-12-02T00:14:22.265Z,99.90
2022-12-02T00:16:54.231Z,99.90
2022-12-02T00:19:26.299Z,99.90
2022-12-02T00:21:58.159Z,99.90
2022-12-02T00:24:30.113Z,99.90
2022-12-02T00:27:02.024Z,99.90
2022-12-02T00:29:33.977Z,99.90
2022-12-02T00:32:06.322Z,99.90
2022-12-02T00:34:38.323Z,99.90
2022-12-02T00:37:10.252Z,99.90
2022-12-02T00:39:42.165Z,99.90
2022-12-02T00:42:14.049Z,99.90
2022-12-02T00:45:04.321Z,99.90
2022-12-02T00:47:36.267Z,99.90
2022-12-02T00:50:08.786Z,99.90
2022-12-02T00:52:40.843Z,99.90
2022-12-02T00:55:12.835Z,99.90
2022-12-02T00:57:45.064Z,99.90
2022-12-02T01:00:17.397Z,99.90
2022-12-02T01:02:49.769Z,99.90
2022-12-02T01:05:21.658Z,99.90
2022-12-02T01:07:53.638Z,99.90
2022-12-02T01:10:25.560Z,99.90
2022-12-02T01:12:57.503Z,99.90
2022-12-02T01:15:29.421Z,99.90
2022-12-02T01:18:01.570Z,99.90
2022-12-02T01:20:33.492Z,99.90
2022-12-02T01:23:05.443Z,99.90
2022-12-02T01:25:37.628Z,99.90
2022-12-02T01:28:09.681Z,99.90
2022-12-02T01:30:41.682Z,99.90
2022-12-02T01:33:13.943Z,99.90
2022-12-02T01:35:45.892Z,99.90
2022-12-02T01:38:17.849Z,99.90
2022-12-02T01:40:49.976Z,99.90
2022-12-02T01:43:22.134Z,99.90
2022-12-02T01:45:54.681Z,99.90
2022-12-02T01:48:27.370Z,99.90
2022-12-02T01:50:59.729Z,99.90
2022-12-02T01:53:33.459Z,99.90
2022-12-02T01:56:05.804Z,99.90
2022-12-02T01:58:37.847Z,99.90
2022-12-02T02:01:28.647Z,99.90
2022-12-02T02:04:02.809Z,99.90
2022-12-02T02:06:41.303Z,99.90
2022-12-02T02:09:14.718Z,99.90
2022-12-02T02:11:47.773Z,99.90
2022-12-02T02:14:19.729Z,99.90
2022-12-02T02:16:52.331Z,99.90
2022-12-02T02:19:24.408Z,99.90
2022-12-02T02:21:58.216Z,99.90
2022-12-02T02:24:30.156Z,99.90
2022-12-02T02:27:02.613Z,99.90
2022-12-02T02:29:34.750Z,99.90
2022-12-02T02:32:06.926Z,99.80
2022-12-02T02:34:39.167Z,99.90
2022-12-02T02:37:11.351Z,99.90
2022-12-02T02:39:43.383Z,99.90
2022-12-02T02:42:15.441Z,99.90
2022-12-02T02:44:47.481Z,99.90
2022-12-02T02:47:19.740Z,99.80
2022-12-02T02:49:51.986Z,99.80
2022-12-02T02:52:23.968Z,99.80
2022-12-02T02:54:55.883Z,99.80
2022-12-02T02:57:27.790Z,99.90
2022-12-02T02:59:59.830Z,99.90
2022-12-02T03:02:32.712Z,99.80
2022-12-02T03:05:07.174Z,99.80
2022-12-02T03:07:39.425Z,99.80
2022-12-02T03:10:12.736Z,99.80
2022-12-02T03:12:46.929Z,99.70
2022-12-02T03:15:20.136Z,99.60
2022-12-02T03:17:53.070Z,99.60
2022-12-02T03:20:26.404Z,99.50
2022-12-02T03:22:58.419Z,99.40
2022-12-02T03:25:31.439Z,99.30
2022-12-02T03:28:04.179Z,99.20
2022-12-02T03:30:36.258Z,99.20
2022-12-02T03:33:08.704Z,99.10
2022-12-02T03:35:41.056Z,99.00
2022-12-02T03:38:13.261Z,99.00
2022-12-02T03:40:46.896Z,98.90
2022-12-02T03:43:18.906Z,98.90
2022-12-02T03:45:51.002Z,98.90
2022-12-02T03:48:25.171Z,99.00
2022-12-02T03:50:58.003Z,98.90
2022-12-02T03:53:30.567Z,98.90
2022-12-02T03:56:08.030Z,98.90
2022-12-02T03:58:49.250Z,99.00
2022-12-02T04:01:24.047Z,99.00
2022-12-02T04:03:55.995Z,98.90
2022-12-02T04:06:28.264Z,98.90
2022-12-02T04:09:00.188Z,98.80
2022-12-02T04:11:32.327Z,98.80
2022-12-02T04:14:04.565Z,98.80
2022-12-02T04:16:36.511Z,98.80
2022-12-02T04:19:08.475Z,98.90
2022-12-02T04:21:40.336Z,98.90
2022-12-02T04:24:12.292Z,98.90
2022-12-02T04:26:44.343Z,98.90
2022-12-02T04:29:16.313Z,98.90
2022-12-02T04:31:48.288Z,98.90
2022-12-02T04:34:20.210Z,98.90
2022-12-02T04:36:52.118Z,98.90
2022-12-02T04:39:24.160Z,98.90
2022-12-02T04:41:56.071Z,98.80
2022-12-02T04:44:28.296Z,98.80
2022-12-02T04:47:00.232Z,98.80
2022-12-02T04:49:32.649Z,98.80
2022-12-02T04:52:04.798Z,98.80
2022-12-02T04:54:36.696Z,98.80
2022-12-02T04:57:08.972Z,98.80
2022-12-02T04:59:40.896Z,98.70
2022-12-02T05:02:13.095Z,98.70
2022-12-02T05:04:45.046Z,98.60
2022-12-02T05:07:17.586Z,98.60
2022-12-02T05:09:49.526Z,98.60
2022-12-02T05:12:21.783Z,98.60
2022-12-02T05:14:53.877Z,98.50
2022-12-02T05:17:25.977Z,98.50
2022-12-02T05:19:58.032Z,98.50
2022-12-02T05:22:29.939Z,98.40
2022-12-02T05:25:01.889Z,98.40
2022-12-02T05:27:35.578Z,98.40
2022-12-02T05:30:08.928Z,98.40
2022-12-02T05:32:40.913Z,98.40
2022-12-02T05:35:13.073Z,98.40
2022-12-02T05:37:44.932Z,98.40
2022-12-02T05:40:16.941Z,98.40
2022-12-02T05:42:48.837Z,98.40
2022-12-02T05:45:23.508Z,98.70
2022-12-02T05:47:56.013Z,98.40
2022-12-02T05:50:33.114Z,98.40
2022-12-02T05:53:05.107Z,98.40
2022-12-02T05:55:37.093Z,98.40
2022-12-02T05:58:13.817Z,98.40
2022-12-02T06:00:56.371Z,98.40
2022-12-02T06:03:28.575Z,98.50
2022-12-02T06:06:02.533Z,98.40
2022-12-02T06:08:39.562Z,98.80
2022-12-02T06:11:36.561Z,98.40
2022-12-02T06:14:18.537Z,98.40
2022-12-02T06:16:56.972Z,98.40
2022-12-02T06:19:47.329Z,98.40
2022-12-02T06:22:30.352Z,98.40
2022-12-02T06:25:18.710Z,98.40
2022-12-02T06:27:52.689Z,98.40
2022-12-02T06:30:24.617Z,98.40
2022-12-02T06:32:59.981Z,98.40
2022-12-02T06:35:34.139Z,98.50
2022-12-02T06:38:39.316Z,98.50
2022-12-02T06:41:30.492Z,98.50
2022-12-02T06:44:49.848Z,98.50
2022-12-02T06:47:33.961Z,98.50
2022-12-02T06:50:05.865Z,98.50
2022-12-02T06:52:46.681Z,98.50
2022-12-02T06:55:35.608Z,98.50
2022-12-02T06:58:25.636Z,98.50
2022-12-02T07:01:20.518Z,98.60
2022-12-02T07:04:35.452Z,98.70
2022-12-02T07:07:27.983Z,98.70
2022-12-02T07:10:21.057Z,98.70
2022-12-02T07:12:53.960Z,98.70
2022-12-02T07:15:32.076Z,98.70
2022-12-02T07:18:20.258Z,98.80
2022-12-02T07:20:52.262Z,98.70
2022-12-02T07:23:27.612Z,98.80
2022-12-02T07:26:00.897Z,98.70
2022-12-02T07:28:39.565Z,98.70
2022-12-02T07:31:27.023Z,98.70
2022-12-02T07:33:59.282Z,98.70
2022-12-02T07:36:31.159Z,98.80
2022-12-02T07:39:06.145Z,98.80
2022-12-02T07:41:38.592Z,98.80
2022-12-02T07:44:10.653Z,98.80
2022-12-02T07:46:42.585Z,98.80
2022-12-02T07:49:14.530Z,98.80
2022-12-02T07:51:46.504Z,98.80
2022-12-02T07:54:18.498Z,98.80
2022-12-02T07:56:50.409Z,98.80
2022-12-02T07:59:22.566Z,98.90
2022-12-02T08:01:54.506Z,98.90
2022-12-02T08:04:26.583Z,99.00
2022-12-02T08:06:59.226Z,99.00
2022-12-02T08:09:31.200Z,99.00
2022-12-02T08:12:03.612Z,98.90
2022-12-02T08:14:35.558Z,98.90
2022-12-02T08:17:07.692Z,99.00
2022-12-02T08:19:41.399Z,99.10
2022-12-02T08:22:13.452Z,99.10
2022-12-02T08:24:45.360Z,99.10
2022-12-02T08:27:17.466Z,99.10
2022-12-02T08:29:50.176Z,99.10
2022-12-02T08:32:22.226Z,99.10
2022-12-02T08:34:54.301Z,99.20
2022-12-02T08:37:31.363Z,99.20
2022-12-02T08:40:04.629Z,99.20
2022-12-02T08:42:36.623Z,99.20
2022-12-02T08:45:09.386Z,99.20
2022-12-02T08:47:41.327Z,99.30
2022-12-02T08:50:13.422Z,99.40
2022-12-02T08:52:45.456Z,99.40
2022-12-02T08:55:17.497Z,99.40
2022-12-02T08:57:49.448Z,99.50
2022-12-02T09:00:21.902Z,99.60
2022-12-02T09:02:53.874Z,99.80
2022-12-02T09:05:25.894Z,99.80
2022-12-02T09:07:57.851Z,99.80
2022-12-02T09:10:30.800Z,99.80
2022-12-02T09:13:02.940Z,99.80
2022-12-02T09:15:34.946Z,99.80
2022-12-02T09:18:11.152Z,99.90
2022-12-02T09:20:46.176Z,99.90
2022-12-02T09:23:18.147Z,99.90
2022-12-02T09:25:50.049Z,99.90
2022-12-02T09:28:23.704Z,99.90
2022-12-02T09:30:55.664Z,99.90
2022-12-02T09:33:33.546Z,99.90
2022-12-02T09:36:06.194Z,99.90
2022-12-02T09:38:38.359Z,99.90
2022-12-02T09:41:10.415Z,99.90
2022-12-02T09:43:43.919Z,99.90
2022-12-02T09:46:19.724Z,99.90
2022-12-02T09:48:56.534Z,99.90
2022-12-02T09:51:28.841Z,99.90
2022-12-02T09:54:03.234Z,99.90
2022-12-02T09:56:36.263Z,99.90
2022-12-02T09:59:17.159Z,99.90
2022-12-02T10:01:50.064Z,99.90
2022-12-02T10:04:23.132Z,99.90
2022-12-02T10:06:55.087Z,99.90
2022-12-02T10:09:30.605Z,99.90
2022-12-02T10:12:02.768Z,99.90
2022-12-02T10:14:35.744Z,99.90
2022-12-02T10:17:18.280Z,99.90
2022-12-02T10:19:51.500Z,99.90
2022-12-02T10:22:25.164Z,99.90
2022-12-02T10:24:58.758Z,99.90
2022-12-02T10:27:32.489Z,99.90
2022-12-02T10:30:27.087Z,99.90
2022-12-02T10:33:08.330Z,99.90
2022-12-02T10:35:46.428Z,99.90
2022-12-02T10:38:36.506Z,99.90
2022-12-02T10:41:28.873Z,99.90
2022-12-02T10:44:06.241Z,99.90
2022-12-02T10:46:38.274Z,99.90
2022-12-02T10:49:36.369Z,99.90
2022-12-02T10:52:12.122Z,99.90
2022-12-02T10:54:50.177Z,99.90
2022-12-02T10:57:29.762Z,99.90
2022-12-02T11:00:23.016Z,99.90
2022-12-02T11:03:05.561Z,99.90
2022-12-02T11:05:38.330Z,99.90
2022-12-02T11:08:27.549Z,99.90
2022-12-02T11:11:13.279Z,99.90
2022-12-02T11:13:56.445Z,99.90
2022-12-02T11:16:28.455Z,99.90
2022-12-02T11:19:24.830Z,99.90
2022-12-02T11:22:00.427Z,99.90
2022-12-02T11:24:32.497Z,99.90
2022-12-02T11:27:04.498Z,99.90
2022-12-02T11:29:43.528Z,99.90
2022-12-02T11:32:28.184Z,99.90
2022-12-02T11:35:17.095Z,99.90
2022-12-02T11:38:19.717Z,99.90
2022-12-02T11:40:59.392Z,99.90
2022-12-02T11:44:20.880Z,99.90
2022-12-02T11:47:04.529Z,99.90
2022-12-02T11:49:40.620Z,99.90
2022-12-02T11:52:23.489Z,99.90
2022-12-02T11:55:23.862Z,99.90
2022-12-02T11:57:58.684Z,99.90
2022-12-02T12:00:38.413Z,99.90
2022-12-02T12:03:19.178Z,99.90
2022-12-02T12:06:16.047Z,99.90
2022-12-02T12:08:54.718Z,99.90
2022-12-02T12:11:37.076Z,99.90
2022-12-02T12:14:12.000Z,99.90
2022-12-02T12:16:50.294Z,99.90
2022-12-02T12:19:22.203Z,99.90
2022-12-02T12:21:57.197Z,99.90
2022-12-02T12:24:31.503Z,99.90
2022-12-02T12:27:03.416Z,99.90
2022-12-02T12:29:38.436Z,99.90
2022-12-02T12:32:11.147Z,99.90
2022-12-02T12:34:43.204Z,99.90
2022-12-02T12:37:15.264Z,99.90
2022-12-02T12:39:47.182Z,99.90
2022-12-02T12:42:19.173Z,99.90
2022-12-02T12:44:52.758Z,99.90
2022-12-02T12:47:25.079Z,99.90
2022-12-02T12:49:57.173Z,99.90
2022-12-02T12:52:29.151Z,99.90
2022-12-02T12:55:01.018Z,99.90
2022-12-02T12:57:32.973Z,99.90
2022-12-02T13:00:06.003Z,99.90
2022-12-02T13:02:38.010Z,99.90
2022-12-02T13:05:10.065Z,99.90
2022-12-02T13:07:42.018Z,99.90
2022-12-02T13:10:14.065Z,99.90
2022-12-02T13:12:46.003Z,99.90
2022-12-02T13:15:18.166Z,99.90
2022-12-02T13:17:50.355Z,99.90
2022-12-02T13:20:22.366Z,99.90
2022-12-02T13:22:54.357Z,99.90
2022-12-02T13:25:26.604Z,99.90
2022-12-02T13:27:58.483Z,99.90
2022-12-02T13:30:30.451Z,99.90
2022-12-02T13:33:02.474Z,99.90
2022-12-02T13:35:34.472Z,99.90
2022-12-02T13:38:06.475Z,99.90
2022-12-02T13:40:38.622Z,99.90
2022-12-02T13:43:10.524Z,99.90
2022-12-02T13:45:44.369Z,99.90
2022-12-02T13:48:16.555Z,99.90
2022-12-02T13:50:48.501Z,99.90
2022-12-02T13:53:20.427Z,99.90
2022-12-02T13:55:52.478Z,99.90
2022-12-02T13:58:25.396Z,99.90
2022-12-02T14:00:57.342Z,99.90
2022-12-02T14:03:29.277Z,99.90
2022-12-02T14:06:01.286Z,99.90
2022-12-02T14:08:33.280Z,99.90
2022-12-02T14:11:05.657Z,99.90
2022-12-02T14:13:37.558Z,99.80
2022-12-02T14:16:09.579Z,99.70
2022-12-02T14:18:41.588Z,99.70
2022-12-02T14:21:13.757Z,99.70
2022-12-02T14:23:45.791Z,99.70
2022-12-02T14:26:17.861Z,99.70
2022-12-02T14:28:49.829Z,99.70
2022-12-02T14:31:26.325Z,99.70
2022-12-02T14:34:14.560Z,99.70
2022-12-02T14:36:46.716Z,99.70
2022-12-02T14:39:18.766Z,99.70
2022-12-02T14:41:50.742Z,99.70
2022-12-02T14:44:22.950Z,99.70
2022-12-02T14:46:54.975Z,99.70
2022-12-02T14:49:42.663Z,99.70
2022-12-02T14:52:14.821Z,99.70
2022-12-02T14:54:46.813Z,99.70
2022-12-02T14:57:18.786Z,99.70
2022-12-02T14:59:50.796Z,99.70
2022-12-02T15:02:22.934Z,99.70
2022-12-02T15:04:55.134Z,99.60
2022-12-02T15:07:27.268Z,99.60
2022-12-02T15:09:59.881Z,99.60
2022-12-02T15:12:31.787Z,99.60
2022-12-02T15:17:56.993Z,99.60
2022-12-02T15:20:28.933Z,99.60
2022-12-02T15:23:00.899Z,99.60
2022-12-02T15:25:32.857Z,99.60
2022-12-02T15:28:04.921Z,99.60
2022-12-02T15:30:36.895Z,99.60
2022-12-02T15:33:08.967Z,99.60
2022-12-02T15:35:40.883Z,99.60
2022-12-02T15:38:13.038Z,99.60
2022-12-02T15:40:45.003Z,99.50
2022-12-02T15:43:17.004Z,99.40
2022-12-02T15:45:48.958Z,99.80
2022-12-02T15:48:21.334Z,99.40
2022-12-02T15:50:55.354Z,99.30
2022-12-02T15:53:27.714Z,99.30
2022-12-02T15:55:59.694Z,99.30
2022-12-02T15:58:31.564Z,99.20
2022-12-02T16:01:03.732Z,99.20
2022-12-02T16:03:35.671Z,99.20
2022-12-02T16:06:08.130Z,99.30
2022-12-02T16:08:40.173Z,99.20
2022-12-02T16:11:12.383Z,99.20
2022-12-02T16:13:44.257Z,99.20
2022-12-02T16:16:16.220Z,99.20
2022-12-02T16:18:49.607Z,99.20
2022-12-02T16:21:21.545Z,99.20
2022-12-02T16:23:53.498Z,99.10
2022-12-02T16:26:25.499Z,99.20
2022-12-02T16:28:57.435Z,99.20
2022-12-02T16:31:29.544Z,99.30
2022-12-02T16:34:01.607Z,99.30
2022-12-02T16:36:33.557Z,99.20
2022-12-02T16:39:05.545Z,99.30
2022-12-02T16:41:37.492Z,99.30
2022-12-02T16:44:09.402Z,99.30
2022-12-02T16:46:41.379Z,99.20
2022-12-02T16:49:13.401Z,99.20
2022-12-02T16:51:45.672Z,99.20
2022-12-02T16:54:17.580Z,99.20
2022-12-02T16:56:55.479Z,99.20
2022-12-02T16:59:28.022Z,99.20
2022-12-02T17:02:00.082Z,99.10
2022-12-02T17:04:32.086Z,99.00
2022-12-02T17:07:04.376Z,99.00
2022-12-02T17:09:36.448Z,98.50
2022-12-02T17:12:08.411Z,98.50
2022-12-02T17:14:40.396Z,98.50
2022-12-02T17:17:37.723Z,98.50
2022-12-02T17:20:06.107Z,98.50
2022-12-02T17:22:38.220Z,98.40
2022-12-02T17:25:13.017Z,98.40
2022-12-02T17:27:45.210Z,98.40
2022-12-02T17:30:17.255Z,98.40
2022-12-02T17:32:54.908Z,98.40
2022-12-02T17:35:28.651Z,98.30
2022-12-02T17:38:00.565Z,98.40
2022-12-02T17:40:32.648Z,98.40
2022-12-02T17:43:04.524Z,98.40
2022-12-02T17:45:36.526Z,98.30
2022-12-02T17:48:08.473Z,98.30
2022-12-02T17:50:40.372Z,98.40
2022-12-02T17:53:12.301Z,98.40
2022-12-02T17:55:44.215Z,98.30
2022-12-02T17:58:16.378Z,98.20
2022-12-02T18:00:48.278Z,98.20
2022-12-02T18:03:20.389Z,98.10
2022-12-02T18:05:52.424Z,98.10
2022-12-02T18:08:25.708Z,98.10
2022-12-02T18:10:57.779Z,98.10
2022-12-02T18:13:30.443Z,98.00
2022-12-02T18:16:02.473Z,98.10
2022-12-02T18:18:34.624Z,98.10
2022-12-02T18:21:06.669Z,98.10
2022-12-02T18:23:39.819Z,98.10
2022-12-02T18:26:12.395Z,98.10
2022-12-02T18:28:44.329Z,98.00
2022-12-02T18:31:16.358Z,97.90
2022-12-02T18:33:48.361Z,98.00
2022-12-02T18:36:20.362Z,98.00
2022-12-02T18:38:52.328Z,98.00
2022-12-02T18:41:24.296Z,97.80
2022-12-02T18:43:56.281Z,97.90
2022-12-02T18:46:28.295Z,97.80
2022-12-02T18:49:00.273Z,97.80
2022-12-02T18:51:32.256Z,97.80
2022-12-02T18:54:04.272Z,97.80
2022-12-02T18:56:36.250Z,97.80
2022-12-02T18:59:08.158Z,97.80
2022-12-02T19:01:40.387Z,97.80
2022-12-02T19:04:12.496Z,97.70
2022-12-02T19:06:44.881Z,97.70
2022-12-02T19:09:16.824Z,97.70
2022-12-02T19:11:48.797Z,97.70
2022-12-02T19:14:50.920Z,97.40
2022-12-02T19:17:23.082Z,97.60
2022-12-02T19:19:55.044Z,97.60
2022-12-02T19:22:27.010Z,97.50
2022-12-02T19:24:58.935Z,97.50
2022-12-02T19:30:23.504Z,97.50
2022-12-02T19:32:55.490Z,97.40
2022-12-02T19:35:27.499Z,97.30
2022-12-02T19:38:04.269Z,97.30
2022-12-02T19:40:44.774Z,97.30
2022-12-02T19:43:17.966Z,97.20
2022-12-02T19:45:50.021Z,97.20
2022-12-02T19:48:23.646Z,97.20
2022-12-02T19:50:56.302Z,97.00
2022-12-02T19:53:28.260Z,97.00
2022-12-02T19:56:00.191Z,97.00
2022-12-02T19:58:32.149Z,97.00
2022-12-02T20:01:04.188Z,97.00
2022-12-02T20:03:36.265Z,97.00
2022-12-02T20:06:08.697Z,97.00
2022-12-02T20:08:40.738Z,97.00
2022-12-02T20:11:12.897Z,96.90
2022-12-02T20:13:44.917Z,96.90
2022-12-02T20:16:17.102Z,96.90
2022-12-02T20:18:49.093Z,96.90
2022-12-02T20:21:21.022Z,96.90
2022-12-02T20:23:52.974Z,96.90
2022-12-02T20:26:24.926Z,96.80
2022-12-02T20:28:56.915Z,96.80
2022-12-02T20:31:28.929Z,96.80
2022-12-02T20:34:01.226Z,96.80
2022-12-02T20:36:34.422Z,96.80
2022-12-02T20:39:06.564Z,96.80
2022-12-02T20:41:38.505Z,96.80
2022-12-02T20:44:10.419Z,96.80
2022-12-02T20:46:42.420Z,96.90
2022-12-02T20:49:14.452Z,96.90
2022-12-02T20:51:46.330Z,97.00
2022-12-02T20:54:18.739Z,97.00
2022-12-02T20:56:50.697Z,96.90
2022-12-02T20:59:22.716Z,96.90
2022-12-02T21:01:54.815Z,96.90
2022-12-02T21:04:26.758Z,96.90
2022-12-02T21:06:58.759Z,96.90
2022-12-02T21:09:31.474Z,96.90
2022-12-02T21:12:03.470Z,96.90
2022-12-02T21:14:35.845Z,97.00
2022-12-02T21:17:07.731Z,96.90
2022-12-02T21:19:39.678Z,96.90
2022-12-02T21:22:11.590Z,97.00
2022-12-02T21:24:43.559Z,96.90
2022-12-02T21:27:15.763Z,97.00
2022-12-02T21:29:47.783Z,97.00
2022-12-02T21:32:19.688Z,97.00
2022-12-02T21:34:51.805Z,97.00
2022-12-02T21:37:23.951Z,97.00
2022-12-02T21:39:55.954Z,97.00
2022-12-02T21:42:27.897Z,97.00
2022-12-02T21:44:59.896Z,97.00
2022-12-02T21:47:32.012Z,97.00
2022-12-02T21:50:05.826Z,97.00
2022-12-02T21:52:37.789Z,97.00
2022-12-02T21:55:10.313Z,97.00
2022-12-02T21:57:42.289Z,96.90
2022-12-02T22:00:16.374Z,96.90
2022-12-02T22:02:48.374Z,96.90
2022-12-02T22:05:20.962Z,96.90
2022-12-02T22:07:53.390Z,96.90
2022-12-02T22:10:26.378Z,97.00
2022-12-02T22:12:58.344Z,97.00
2022-12-02T22:15:30.279Z,97.00
2022-12-02T22:18:02.224Z,97.00
2022-12-02T22:20:37.215Z,97.10
2022-12-02T22:23:09.110Z,97.10
2022-12-02T22:25:41.107Z,97.10
2022-12-02T22:28:13.365Z,97.10
2022-12-02T22:30:45.295Z,97.10
2022-12-02T22:33:17.218Z,97.10
2022-12-02T22:35:49.191Z,97.20
2022-12-02T22:38:21.757Z,97.20
2022-12-02T22:40:53.708Z,97.30
2022-12-02T22:43:25.629Z,97.30
2022-12-02T22:45:57.621Z,97.30
2022-12-02T22:48:29.532Z,97.20
2022-12-02T22:51:01.544Z,97.30
2022-12-02T22:53:33.488Z,97.30
2022-12-02T22:56:06.379Z,97.20
2022-12-02T22:58:38.325Z,97.20
2022-12-02T23:01:10.349Z,97.30
2022-12-02T23:03:42.412Z,97.30
2022-12-02T23:06:14.397Z,97.30
2022-12-02T23:08:46.419Z,97.30
2022-12-02T23:11:18.388Z,97.30
2022-12-02T23:13:50.380Z,97.40
2022-12-02T23:16:22.479Z,97.40
2022-12-02T23:18:54.500Z,97.30
2022-12-02T23:21:26.466Z,97.40
2022-12-02T23:23:58.568Z,97.40
2022-12-02T23:26:30.496Z,97.40
2022-12-02T23:29:02.633Z,97.40
2022-12-02T23:31:34.623Z,97.40
2022-12-02T23:34:07.615Z,97.40
2022-12-02T23:36:39.582Z,97.40
2022-12-02T23:39:11.522Z,97.40
2022-12-02T23:41:43.479Z,97.40
2022-12-02T23:44:15.518Z,97.40
2022-12-02T23:46:47.909Z,97.40
2022-12-02T23:49:19.955Z,97.50
2022-12-02T23:51:52.273Z,97.50
2022-12-02T23:54:24.375Z,97.50
2022-12-02T23:56:56.319Z,97.50
2022-12-02T23:59:28.224Z,97.60
